createdAt,value
2018-09-12T00:01:45.998Z,20.43
2018-09-12T00:04:50.242Z,18.03
2018-09-12T00:07:54.453Z,21.47
2018-09-12T00:10:58.665Z,23.90
2018-09-12T00:14:02.884Z,20.47
2018-09-12T00:17:07.146Z,18.33
2018-09-12T00:20:11.385Z,27.00
2018-09-12T00:23:15.649Z,22.10
2018-09-12T00:26:19.894Z,22.07
2018-09-12T00:29:24.105Z,23.10
2018-09-12T00:32:28.349Z,26.83
2018-09-12T00:35:32.576Z,22.37
2018-09-12T00:38:36.833Z,21.30
2018-09-12T00:41:41.057Z,21.20
2018-09-12T00:44:45.281Z,25.83
2018-09-12T00:47:49.522Z,23.23
2018-09-12T00:50:53.749Z,25.60
2018-09-12T00:53:57.969Z,21.93
2018-09-12T00:57:02.214Z,22.83
2018-09-12T01:00:06.457Z,23.20
2018-09-12T01:03:10.721Z,25.30
2018-09-12T01:06:14.929Z,21.37
2018-09-12T01:09:19.181Z,18.17
2018-09-12T01:12:23.401Z,16.17
2018-09-12T01:15:27.637Z,16.13
2018-09-12T01:18:31.858Z,21.13
2018-09-12T01:21:36.097Z,27.40
2018-09-12T01:24:40.333Z,21.80
2018-09-12T01:27:48.105Z,24.10
2018-09-12T01:30:52.625Z,24.97
2018-09-12T01:33:56.844Z,15.67
2018-09-12T01:37:01.059Z,18.37
2018-09-12T01:40:05.473Z,17.83
2018-09-12T01:43:09.697Z,19.83
2018-09-12T01:46:13.929Z,18.87
2018-09-12T01:49:19.598Z,21.50
2018-09-12T01:52:23.804Z,20.83
2018-09-12T01:55:28.058Z,19.03
2018-09-12T01:58:32.298Z,15.53
2018-09-12T02:01:36.518Z,20.73
2018-09-12T02:04:40.713Z,11.50
2018-09-12T02:07:44.925Z,12.93
2018-09-12T02:10:49.173Z,17.37
2018-09-12T02:13:53.392Z,18.17
2018-09-12T02:16:57.619Z,13.90
2018-09-12T02:20:01.849Z,13.80
2018-09-12T02:23:06.093Z,14.90
2018-09-12T02:26:10.326Z,15.43
2018-09-12T02:29:14.544Z,18.40
2018-09-12T02:32:18.798Z,17.13
2018-09-12T02:35:23.019Z,17.33
2018-09-12T02:38:27.270Z,17.30
2018-09-12T02:41:31.490Z,16.00
2018-09-12T02:44:35.717Z,13.70
2018-09-12T02:47:40.601Z,17.93
2018-09-12T02:50:44.830Z,14.23
2018-09-12T02:53:49.053Z,14.33
2018-09-12T02:56:53.254Z,16.03
2018-09-12T02:59:57.513Z,14.57
2018-09-12T03:03:01.761Z,17.20
2018-09-12T03:06:06.157Z,17.90
2018-09-12T03:09:11.256Z,18.80
2018-09-12T03:12:15.893Z,12.73
2018-09-12T03:15:20.126Z,15.87
2018-09-12T03:18:24.362Z,15.17
2018-09-12T03:21:28.596Z,13.93
2018-09-12T03:24:32.870Z,12.60
2018-09-12T03:27:37.086Z,15.83
2018-09-12T03:30:41.325Z,16.50
2018-09-12T03:33:45.536Z,14.20
2018-09-12T03:36:49.775Z,16.23
2018-09-12T03:39:55.065Z,15.43
2018-09-12T03:42:59.277Z,13.53
2018-09-12T03:46:03.492Z,13.63
2018-09-12T03:49:07.726Z,13.33
2018-09-12T03:52:11.987Z,15.60
2018-09-12T03:55:16.161Z,16.97
2018-09-12T03:58:20.379Z,18.80
2018-09-12T04:01:24.592Z,19.20
2018-09-12T04:04:28.781Z,15.93
2018-09-12T04:07:33.022Z,20.60
2018-09-12T04:10:37.243Z,20.23
2018-09-12T04:13:41.456Z,25.90
2018-09-12T04:16:45.673Z,9.83
2018-09-12T04:19:49.901Z,16.07
2018-09-12T04:22:54.097Z,17.63
2018-09-12T04:25:58.327Z,14.10
2018-09-12T04:29:02.556Z,17.83
2018-09-12T04:32:06.807Z,12.43
2018-09-12T04:35:11.013Z,15.23
2018-09-12T04:38:15.234Z,15.63
2018-09-12T04:41:19.458Z,16.43
2018-09-12T04:44:23.656Z,14.87
2018-09-12T04:47:27.876Z,20.80
2018-09-12T04:50:32.053Z,13.10
2018-09-12T04:53:36.269Z,10.60
2018-09-12T04:56:40.489Z,14.47
2018-09-12T04:59:44.785Z,20.03
2018-09-12T05:02:48.941Z,18.07
2018-09-12T05:05:53.163Z,20.27
2018-09-12T05:08:57.362Z,21.87
2018-09-12T05:12:01.609Z,20.43
2018-09-12T05:15:05.888Z,19.80
2018-09-12T05:18:10.120Z,16.70
2018-09-12T05:21:14.922Z,19.97
2018-09-12T05:24:19.141Z,15.97
2018-09-12T05:27:23.419Z,20.70
2018-09-12T05:30:27.610Z,14.10
2018-09-12T05:33:31.867Z,19.67
2018-09-12T05:36:36.094Z,14.07
2018-09-12T05:39:40.320Z,17.10
2018-09-12T05:42:44.501Z,14.63
2018-09-12T05:45:48.733Z,10.07
2018-09-12T05:48:52.917Z,14.67
2018-09-12T05:51:57.122Z,13.23
2018-09-12T05:55:01.347Z,12.83
2018-09-12T05:58:05.559Z,13.43
2018-09-12T06:01:09.766Z,14.67
2018-09-12T06:04:13.957Z,18.67
2018-09-12T06:07:18.286Z,12.43
2018-09-12T06:10:22.434Z,10.47
2018-09-12T06:13:26.658Z,16.53
2018-09-12T06:16:30.844Z,9.83
2018-09-12T06:19:35.081Z,15.73
2018-09-12T06:22:39.277Z,10.43
2018-09-12T06:25:43.494Z,8.00
2018-09-12T06:28:47.682Z,7.67
2018-09-12T06:31:51.917Z,6.93
2018-09-12T06:34:56.113Z,9.03
2018-09-12T06:38:00.337Z,11.17
2018-09-12T06:41:04.544Z,7.70
2018-09-12T06:44:08.939Z,6.37
2018-09-12T06:47:13.785Z,11.40
2018-09-12T06:50:18.004Z,9.17
2018-09-12T06:53:22.209Z,9.43
2018-09-12T06:56:26.457Z,8.63
2018-09-12T06:59:30.624Z,9.20
2018-09-12T07:02:34.849Z,4.60
2018-09-12T07:05:39.069Z,8.97
2018-09-12T07:08:43.293Z,12.67
2018-09-12T07:11:47.517Z,9.40
2018-09-12T07:14:51.707Z,7.27
2018-09-12T07:17:55.925Z,8.80
2018-09-12T07:21:00.145Z,15.40
2018-09-12T07:24:04.352Z,11.07
2018-09-12T07:27:08.570Z,10.60
2018-09-12T07:30:12.901Z,11.33
2018-09-12T07:33:17.114Z,16.80
2018-09-12T07:36:21.360Z,12.33
2018-09-12T07:39:25.565Z,13.30
2018-09-12T07:42:29.778Z,12.10
2018-09-12T07:45:34.041Z,12.07
2018-09-12T07:48:38.264Z,13.07
2018-09-12T07:51:42.494Z,17.07
2018-09-12T07:54:46.723Z,13.30
2018-09-12T07:57:50.960Z,11.47
2018-09-12T08:00:55.170Z,14.83
2018-09-12T08:03:59.378Z,14.80
2018-09-12T08:07:03.592Z,14.23
2018-09-12T08:10:08.129Z,14.13
2018-09-12T08:13:12.371Z,15.50
2018-09-12T08:16:16.605Z,10.73
2018-09-12T08:19:20.839Z,9.63
2018-09-12T08:22:25.084Z,17.80
2018-09-12T08:25:29.284Z,14.83
2018-09-12T08:28:33.616Z,13.87
2018-09-12T08:31:37.825Z,13.37
2018-09-12T08:34:42.064Z,12.10
2018-09-12T08:37:46.382Z,13.13
2018-09-12T08:40:50.613Z,10.50
2018-09-12T08:43:54.801Z,15.77
2018-09-12T08:46:59.036Z,7.57
2018-09-12T08:50:03.263Z,9.07
2018-09-12T08:53:07.521Z,10.60
2018-09-12T08:56:11.725Z,9.20
2018-09-12T08:59:15.956Z,8.67
2018-09-12T09:02:20.165Z,11.20
2018-09-12T09:05:24.422Z,13.53
2018-09-12T09:08:28.670Z,11.93
2018-09-12T09:11:32.885Z,9.53
2018-09-12T09:14:37.141Z,7.53
2018-09-12T09:17:41.371Z,10.23
2018-09-12T09:20:45.660Z,7.23
2018-09-12T09:23:49.881Z,9.37
2018-09-12T09:26:54.100Z,11.40
2018-09-12T09:29:59.307Z,8.70
2018-09-12T09:33:03.525Z,13.23
2018-09-12T09:36:07.426Z,4.83
2018-09-12T09:39:12.540Z,9.53
2018-09-12T09:42:16.765Z,10.17
2018-09-12T09:45:20.995Z,11.00
2018-09-12T09:48:25.238Z,7.77
2018-09-12T09:51:29.415Z,6.80
2018-09-12T09:54:33.714Z,15.07
2018-09-12T09:57:38.576Z,11.47
2018-09-12T10:00:47.836Z,10.30
2018-09-12T10:03:57.298Z,6.47
2018-09-12T10:07:06.818Z,6.20
2018-09-12T10:10:11.034Z,8.73
2018-09-12T10:13:15.254Z,5.10
2018-09-12T10:16:19.954Z,7.07
2018-09-12T10:19:24.161Z,5.93
2018-09-12T10:22:28.364Z,19.50
2018-09-12T10:25:32.628Z,10.00
2018-09-12T10:28:37.013Z,6.30
2018-09-12T10:31:41.243Z,8.63
2018-09-12T10:34:45.669Z,16.43
2018-09-12T10:37:49.885Z,13.60
2018-09-12T10:40:54.160Z,12.20
2018-09-12T10:43:58.376Z,14.03
2018-09-12T10:47:02.596Z,12.30
2018-09-12T10:50:06.808Z,7.97
2018-09-12T10:53:11.034Z,14.30
2018-09-12T10:56:15.264Z,9.93
2018-09-12T10:59:19.494Z,6.20
2018-09-12T11:02:23.698Z,8.80
2018-09-12T11:05:27.946Z,7.47
2018-09-12T11:08:32.168Z,136.00
2018-09-12T11:11:36.392Z,46.93
2018-09-12T11:14:40.616Z,25.97
2018-09-12T11:17:44.849Z,19.50
2018-09-12T11:20:49.057Z,8.93
2018-09-12T11:23:53.331Z,7.27
2018-09-12T11:26:57.551Z,9.47
2018-09-12T11:30:01.764Z,8.00
2018-09-12T11:33:05.989Z,9.63
2018-09-12T11:36:10.233Z,4.83
2018-09-12T11:39:14.453Z,7.37
2018-09-12T11:42:18.685Z,6.97
2018-09-12T11:45:22.899Z,6.33
2018-09-12T11:48:27.124Z,8.23
2018-09-12T11:51:31.509Z,6.37
2018-09-12T11:54:35.729Z,4.83
2018-09-12T11:57:39.974Z,10.57
2018-09-12T12:00:44.192Z,10.47
2018-09-12T12:03:48.613Z,6.97
2018-09-12T12:06:52.809Z,8.70
2018-09-12T12:09:57.029Z,3.90
2018-09-12T12:13:01.249Z,10.90
2018-09-12T12:16:05.470Z,10.33
2018-09-12T12:19:09.667Z,7.60
2018-09-12T12:22:14.066Z,6.03
2018-09-12T12:25:18.288Z,6.73
2018-09-12T12:28:22.513Z,8.30
2018-09-12T12:31:26.704Z,9.20
2018-09-12T12:34:30.937Z,5.57
2018-09-12T12:37:35.153Z,8.33
2018-09-12T12:40:39.364Z,4.97
2018-09-12T12:43:43.594Z,8.57
2018-09-12T12:46:47.909Z,4.60
2018-09-12T12:49:52.125Z,7.57
2018-09-12T12:52:56.370Z,5.23
2018-09-12T12:56:00.582Z,8.93
2018-09-12T12:59:05.125Z,7.00
2018-09-12T13:02:09.342Z,5.83
2018-09-12T13:05:13.616Z,7.13
2018-09-12T13:08:17.873Z,6.27
2018-09-12T13:11:22.107Z,6.60
2018-09-12T13:14:26.339Z,7.90
2018-09-12T13:17:30.742Z,7.83
2018-09-12T13:20:34.948Z,5.43
2018-09-12T13:23:39.140Z,7.90
2018-09-12T13:26:43.330Z,5.53
2018-09-12T13:29:47.557Z,6.30
2018-09-12T13:32:51.755Z,7.17
2018-09-12T13:35:56.000Z,8.27
2018-09-12T13:39:00.225Z,7.17
2018-09-12T13:42:04.445Z,7.43
2018-09-12T13:45:08.699Z,4.07
2018-09-12T13:48:12.905Z,7.53
2018-09-12T13:51:17.132Z,5.87
2018-09-12T13:54:21.333Z,8.80
2018-09-12T13:57:25.557Z,4.77
2018-09-12T14:00:31.631Z,7.60
2018-09-12T14:03:35.861Z,7.50
2018-09-12T14:06:40.044Z,5.67
2018-09-12T14:09:44.261Z,8.33
2018-09-12T14:12:48.469Z,4.73
2018-09-12T14:15:52.673Z,5.67
2018-09-12T14:18:56.884Z,9.03
2018-09-12T14:22:01.109Z,6.90
2018-09-12T14:25:05.365Z,7.90
2018-09-12T14:28:09.679Z,8.10
2018-09-12T14:31:13.885Z,7.97
2018-09-12T14:34:18.081Z,6.83
2018-09-12T14:37:22.312Z,9.33
2018-09-12T14:40:26.545Z,11.57
2018-09-12T14:43:30.766Z,6.50
2018-09-12T14:46:34.956Z,37.63
2018-09-12T14:49:39.168Z,18.10
2018-09-12T14:52:43.369Z,13.73
2018-09-12T14:55:47.581Z,16.67
2018-09-12T14:58:51.777Z,15.60
2018-09-12T15:01:55.985Z,9.27
2018-09-12T15:05:00.273Z,6.57
2018-09-12T15:08:04.446Z,17.57
2018-09-12T15:11:08.654Z,14.43
2018-09-12T15:14:12.860Z,9.07
2018-09-12T15:17:17.062Z,10.30
2018-09-12T15:20:21.260Z,9.73
2018-09-12T15:23:25.477Z,8.63
2018-09-12T15:26:29.680Z,16.30
2018-09-12T15:29:33.881Z,12.90
2018-09-12T15:32:38.151Z,15.37
2018-09-12T15:35:42.361Z,17.70
2018-09-12T15:38:46.557Z,9.83
2018-09-12T15:41:50.811Z,13.50
2018-09-12T15:44:55.007Z,14.30
2018-09-12T15:47:59.257Z,11.93
2018-09-12T15:51:03.488Z,9.90
2018-09-12T15:54:07.733Z,15.20
2018-09-12T15:57:12.001Z,10.40
2018-09-12T16:00:16.253Z,11.27
2018-09-12T16:03:20.489Z,8.67
2018-09-12T16:06:24.745Z,14.80
2018-09-12T16:09:28.962Z,15.30
2018-09-12T16:12:33.180Z,19.23
2018-09-12T16:15:37.411Z,15.57
2018-09-12T16:18:42.450Z,13.33
2018-09-12T16:21:46.677Z,16.27
2018-09-12T16:24:50.896Z,17.20
2018-09-12T16:27:55.145Z,20.17
2018-09-12T16:30:59.362Z,27.83
2018-09-12T16:34:03.604Z,24.40
2018-09-12T16:37:07.836Z,34.07
2018-09-12T16:40:12.298Z,41.30
2018-09-12T16:43:16.521Z,32.97
2018-09-12T16:46:20.789Z,25.47
2018-09-12T16:49:24.997Z,17.70
2018-09-12T16:52:29.238Z,22.73
2018-09-12T16:55:33.466Z,21.50
2018-09-12T16:58:37.719Z,32.20
2018-09-12T17:01:41.940Z,21.30
2018-09-12T17:04:46.168Z,42.30
2018-09-12T17:07:50.406Z,38.07
2018-09-12T17:10:54.586Z,21.60
2018-09-12T17:13:58.818Z,38.53
2018-09-12T17:17:03.146Z,50.73
2018-09-12T17:20:07.721Z,37.27
2018-09-12T17:23:11.903Z,66.30
2018-09-12T17:26:16.150Z,46.30
2018-09-12T17:29:20.367Z,56.50
2018-09-12T17:32:24.658Z,48.43
2018-09-12T17:35:29.328Z,57.00
2018-09-12T17:38:33.569Z,46.53
2018-09-12T17:41:37.764Z,44.23
2018-09-12T17:44:42.027Z,28.60
2018-09-12T17:47:46.249Z,26.03
2018-09-12T17:50:50.481Z,25.67
2018-09-12T17:53:54.685Z,28.07
2018-09-12T17:56:58.880Z,19.23
2018-09-12T18:00:03.129Z,31.37
2018-09-12T18:03:07.506Z,19.37
2018-09-12T18:06:11.745Z,18.53
2018-09-12T18:09:15.962Z,24.30
2018-09-12T18:12:20.244Z,41.83
2018-09-12T18:15:24.457Z,26.10
2018-09-12T18:18:28.703Z,33.67
2018-09-12T18:21:32.909Z,27.13
2018-09-12T18:24:37.228Z,45.80
2018-09-12T18:27:41.441Z,31.57
2018-09-12T18:30:45.677Z,20.13
2018-09-12T18:33:49.905Z,20.13
2018-09-12T18:36:54.121Z,19.17
2018-09-12T18:39:58.323Z,24.97
2018-09-12T18:43:02.641Z,17.27
2018-09-12T18:46:06.817Z,21.50
2018-09-12T18:49:11.068Z,38.23
2018-09-12T18:52:15.298Z,23.83
2018-09-12T18:55:19.562Z,56.47
2018-09-12T18:58:23.772Z,18.13
2018-09-12T19:01:28.027Z,30.17
2018-09-12T19:04:32.246Z,71.30
2018-09-12T19:07:36.477Z,30.00
2018-09-12T19:10:40.705Z,71.47
2018-09-12T19:13:46.115Z,47.03
2018-09-12T19:16:50.415Z,60.50
2018-09-12T19:19:54.849Z,56.10
2018-09-12T19:22:59.062Z,23.93
2018-09-12T19:26:03.285Z,51.77
2018-09-12T19:29:07.553Z,77.53
2018-09-12T19:32:11.825Z,20.43
2018-09-12T19:35:16.040Z,16.00
2018-09-12T19:38:20.285Z,15.37
2018-09-12T19:41:24.525Z,12.87
2018-09-12T19:44:28.741Z,19.50
2018-09-12T19:47:32.986Z,19.27
2018-09-12T19:50:38.014Z,16.57
2018-09-12T19:53:42.404Z,17.37
2018-09-12T19:56:46.625Z,20.43
2018-09-12T19:59:51.717Z,27.53
2018-09-12T20:02:55.916Z,29.57
2018-09-12T20:06:00.326Z,22.13
2018-09-12T20:09:06.479Z,30.27
2018-09-12T20:12:10.696Z,18.17
2018-09-12T20:15:14.933Z,21.20
2018-09-12T20:18:19.192Z,20.23
2018-09-12T20:21:23.413Z,16.10
2018-09-12T20:24:27.635Z,16.07
2018-09-12T20:27:33.004Z,19.30
2018-09-12T20:30:37.248Z,21.07
2018-09-12T20:33:41.444Z,22.87
2018-09-12T20:36:45.674Z,37.67
2018-09-12T20:39:49.900Z,28.53
2018-09-12T20:42:54.138Z,24.83
2018-09-12T20:45:58.357Z,15.97
2018-09-12T20:49:02.647Z,14.57
2018-09-12T20:52:06.876Z,14.63
2018-09-12T20:55:11.096Z,8.13
2018-09-12T20:58:15.322Z,12.70
2018-09-12T21:01:19.537Z,10.20
2018-09-12T21:04:23.773Z,11.90
2018-09-12T21:07:27.988Z,12.33
2018-09-12T21:10:32.230Z,16.83
2018-09-12T21:13:36.460Z,13.43
2018-09-12T21:16:40.698Z,14.57
2018-09-12T21:19:44.902Z,14.83
2018-09-12T21:22:49.569Z,13.10
2018-09-12T21:25:53.812Z,16.50
2018-09-12T21:28:58.314Z,11.83
2018-09-12T21:32:02.529Z,15.03
2018-09-12T21:35:06.748Z,17.30
2018-09-12T21:38:10.948Z,12.17
2018-09-12T21:41:15.191Z,10.53
2018-09-12T21:44:19.425Z,12.13
2018-09-12T21:47:23.687Z,12.20
2018-09-12T21:50:27.912Z,12.20
2018-09-12T21:53:32.173Z,10.70
2018-09-12T21:56:36.399Z,10.23
2018-09-12T21:59:40.660Z,13.27
2018-09-12T22:02:44.896Z,15.97
2018-09-12T22:05:49.144Z,9.83
2018-09-12T22:08:53.372Z,11.80
2018-09-12T22:11:57.633Z,15.83
2018-09-12T22:15:01.878Z,10.37
2018-09-12T22:18:06.144Z,13.27
2018-09-12T22:21:10.397Z,8.27
2018-09-12T22:24:14.630Z,10.30
2018-09-12T22:27:18.871Z,9.40
2018-09-12T22:30:23.113Z,10.77
2018-09-12T22:33:27.356Z,15.13
2018-09-12T22:36:31.585Z,20.27
2018-09-12T22:39:35.820Z,11.90
2018-09-12T22:42:40.040Z,11.50
2018-09-12T22:45:44.278Z,14.63
2018-09-12T22:48:48.496Z,15.27
2018-09-12T22:51:52.717Z,15.30
2018-09-12T22:54:56.930Z,11.30
2018-09-12T22:58:01.194Z,8.60
2018-09-12T23:01:05.404Z,14.33
2018-09-12T23:04:09.645Z,16.20
2018-09-12T23:07:13.857Z,9.30
2018-09-12T23:10:18.110Z,9.37
2018-09-12T23:13:22.304Z,10.67
2018-09-12T23:16:26.547Z,12.07
2018-09-12T23:19:30.782Z,15.60
2018-09-12T23:22:35.050Z,14.93
2018-09-12T23:25:39.270Z,9.27
2018-09-12T23:28:43.499Z,9.50
2018-09-12T23:31:47.728Z,12.47
2018-09-12T23:34:51.965Z,10.63
2018-09-12T23:37:56.225Z,9.03
2018-09-12T23:41:00.425Z,16.03
2018-09-12T23:44:04.677Z,11.53
2018-09-12T23:47:08.922Z,11.60
2018-09-12T23:50:13.157Z,13.90
2018-09-12T23:53:17.393Z,9.10
2018-09-12T23:56:21.620Z,12.90
2018-09-12T23:59:25.865Z,10.90
